Agency, Iowa
Current Conditions -  °F | °C
As of 9:53 PM on Tuesday 27 Jan 2015 (Local Time) from KOTM Reporting Station
Haze Haze  
Wind Chill: 20°   Ceiling: 700
Heat Index: 29°   Visibility: 6mi
Dew Point: 27°   Wind: 10mph
Humidity: 92%   Direction: 130°SE
Pressure: 30.18"   Gusts: NA
Location:  41°N, 92.31°W
Report Text: KOTM 280353Z AUTO 13009KT 6SM BR OVC007 M02/M03 A3018 RMK AO2 SLP226 T10171028
Loading
Personal Weather Stations






























Interactive Weather Map New forecast layout! Learn more

10-Day Weather Forecast

Advertisements
Track Severe Weather on mobile